Time;durP1;ratioP1;P1;durP2;ratioP2;P2;SDS_P1;SDS_P2;PMS_P1;PMS_P2;Temp;Humidity;BMP_temperature;BMP_pressure;BME280_temperature;BME280_humidity;BME280_pressure;Samples;Min_cycle;Max_cycle;Signal;HPM_P1;HPM_P2
2021/12/02 00:00:07;;;;;;;17.10;7.85;;;;;;;-1.90;68.98;98352.28;1721635;82;21155;-63
2021/12/02 00:02:37;;;;;;;19.20;7.08;;;;;;;-1.92;69.08;98355.78;1688887;82;21098;-65
2021/12/02 00:05:05;;;;;;;17.65;8.28;;;;;;;-1.95;69.23;98346.34;1694994;83;22128;-64
2021/12/02 00:07:32;;;;;;;16.55;6.50;;;;;;;-1.94;69.30;98346.60;1711022;82;21035;-64
2021/12/02 00:09:58;;;;;;;13.25;7.00;;;;;;;-1.91;69.24;98346.63;1726856;82;21060;-63
2021/12/02 00:12:25;;;;;;;17.48;7.20;;;;;;;-1.90;69.24;98343.66;1715984;82;21578;-63
2021/12/02 00:14:52;;;;;;;14.63;6.30;;;;;;;-1.87;69.19;98346.34;1716719;82;21010;-63
2021/12/02 00:17:26;;;;;;;16.15;7.40;;;;;;;-1.87;69.21;98343.64;1722386;82;21211;-63
2021/12/02 00:22:20;;;;;;;15.15;6.83;;;;;;;-1.83;69.27;98340.70;1669070;82;21695;-64
2021/12/02 00:24:47;;;;;;;14.28;6.87;;;;;;;-1.82;69.29;98347.71;1711113;82;21087;-64
2021/12/02 00:27:14;;;;;;;10.23;6.25;;;;;;;-1.85;69.15;98341.50;1657903;83;21045;-64
2021/12/02 00:29:41;;;;;;;12.35;6.53;;;;;;;-1.88;69.21;98344.73;1712400;82;21138;-63
2021/12/02 00:32:09;;;;;;;12.00;5.35;;;;;;;-1.90;69.42;98338.25;1679793;82;21559;-64
2021/12/02 00:34:44;;;;;;;12.37;5.78;;;;;;;-1.90;69.54;98326.63;1711441;82;21039;-64
2021/12/02 00:37:11;;;;;;;9.18;5.17;;;;;;;-1.90;69.59;98327.45;1710850;82;21543;-64
2021/12/02 00:39:39;;;;;;;13.65;5.20;;;;;;;-1.91;69.75;98333.13;1715243;81;21055;-62
2021/12/02 00:42:10;;;;;;;9.85;5.45;;;;;;;-1.92;69.94;98330.95;1727521;81;21493;-64
2021/12/02 00:44:37;;;;;;;6.70;3.60;;;;;;;-1.89;70.10;98322.84;1699255;82;21053;-63
2021/12/02 00:47:04;;;;;;;9.45;5.72;;;;;;;-1.84;70.05;98320.15;1719687;82;21608;-62
2021/12/02 00:49:30;;;;;;;8.60;4.55;;;;;;;-1.84;70.06;98319.63;1700490;82;21151;-64
2021/12/02 00:51:59;;;;;;;11.08;5.10;;;;;;;-1.86;70.06;98306.92;1710643;82;21449;-64
2021/12/02 00:54:26;;;;;;;9.70;5.03;;;;;;;-1.86;70.17;98304.78;1707316;82;21173;-65
2021/12/02 00:56:53;;;;;;;7.90;4.45;;;;;;;-1.86;70.35;98295.32;1705231;82;21052;-65
2021/12/02 00:59:20;;;;;;;8.83;4.72;;;;;;;-1.84;70.53;98287.21;1683701;83;21060;-64
2021/12/02 01:01:48;;;;;;;8.90;5.03;;;;;;;-1.84;70.72;98288.56;1714510;82;21060;-64
2021/12/02 01:04:25;;;;;;;8.53;5.03;;;;;;;-1.78;70.92;98273.71;1711490;82;21485;-63
2021/12/02 01:06:52;;;;;;;10.75;4.70;;;;;;;-1.75;71.02;98273.99;1679578;83;21174;-63
2021/12/02 01:09:19;;;;;;;11.33;5.72;;;;;;;-1.72;71.13;98268.05;1708116;82;21052;-64
2021/12/02 01:11:46;;;;;;;10.40;5.80;;;;;;;-1.69;71.27;98265.36;1689581;83;21533;-64
2021/12/02 01:14:13;;;;;;;8.73;5.05;;;;;;;-1.66;71.38;98254.54;1735494;82;21097;-64
2021/12/02 01:16:41;;;;;;;8.70;5.62;;;;;;;-1.62;71.51;98252.94;1724601;82;21143;-63
2021/12/02 01:19:07;;;;;;;9.93;5.42;;;;;;;-1.60;71.56;98252.09;1722813;82;21109;-64
2021/12/02 01:21:37;;;;;;;10.78;5.83;;;;;;;-1.60;71.62;98241.29;1691224;82;21087;-64
2021/12/02 01:24:04;;;;;;;12.28;6.62;;;;;;;-1.60;71.69;98248.87;1716927;82;21052;-64
2021/12/02 01:26:33;;;;;;;17.73;5.62;;;;;;;-1.59;71.84;98244.28;1717419;82;21051;-65
2021/12/02 01:29:00;;;;;;;11.85;5.90;;;;;;;-1.56;71.97;98223.47;1668534;83;21493;-64
2021/12/02 01:31:31;;;;;;;9.65;5.97;;;;;;;-1.53;71.98;98227.51;1682717;83;21242;-64
2021/12/02 01:34:02;;;;;;;11.30;5.63;;;;;;;-1.53;72.02;98235.08;1723589;82;21090;-63
2021/12/02 01:36:36;;;;;;;9.83;5.53;;;;;;;-1.52;72.05;98238.60;1713088;82;21020;-64
2021/12/02 01:39:04;;;;;;;11.08;6.60;;;;;;;-1.50;72.17;98233.19;1722896;81;21104;-64
2021/12/02 01:41:36;;;;;;;11.40;6.33;;;;;;;-1.47;72.22;98234.55;1730671;82;21290;-63
2021/12/02 01:44:03;;;;;;;14.15;7.22;;;;;;;-1.47;72.31;98239.39;1709690;82;21845;-64
2021/12/02 01:46:30;;;;;;;15.20;6.25;;;;;;;-1.43;72.43;98226.71;1711856;81;21071;-65
2021/12/02 01:49:04;;;;;;;10.15;6.17;;;;;;;-1.41;72.42;98219.12;1626725;82;21029;-65
2021/12/02 01:51:40;;;;;;;13.50;6.08;;;;;;;-1.40;72.50;98226.95;1682647;82;21466;-64
2021/12/02 01:54:10;;;;;;;14.83;6.53;;;;;;;-1.37;72.54;98219.67;1705790;82;21613;-63
2021/12/02 01:56:49;;;;;;;16.42;6.78;;;;;;;-1.36;72.55;98211.00;1717172;82;21118;-62
2021/12/02 01:59:22;;;;;;;13.83;7.95;;;;;;;-1.36;72.61;98215.88;1709208;82;21062;-63
2021/12/02 02:01:51;;;;;;;12.43;7.17;;;;;;;-1.36;72.77;98196.14;1716325;82;21104;-63
2021/12/02 02:04:20;;;;;;;14.15;7.17;;;;;;;-1.32;72.89;98192.35;1718057;82;21504;-62
2021/12/02 02:07:12;;;;;;;12.45;7.97;;;;;;;-1.30;72.96;98193.71;1702245;82;21047;-64
2021/12/02 02:09:39;;;;;;;15.55;8.25;;;;;;;-1.28;72.99;98201.55;1719742;82;21503;-62
2021/12/02 02:12:10;;;;;;;11.85;6.87;;;;;;;-1.27;73.07;98197.75;1727743;82;21200;-63
2021/12/02 02:14:36;;;;;;;11.15;7.12;;;;;;;-1.25;73.11;98200.45;1712581;82;21129;-63
2021/12/02 02:17:14;;;;;;;11.38;7.78;;;;;;;-1.21;73.21;98202.61;1685156;82;21115;-63
2021/12/02 02:19:34;;;;;;;12.55;7.17;;;;;;;-1.19;73.21;98203.13;1708468;81;21457;-63
2021/12/02 02:22:01;;;;;;;14.07;8.18;;;;;;;-1.19;73.28;98193.66;1717039;82;21137;-65
2021/12/02 02:24:29;;;;;;;12.65;7.70;;;;;;;-1.24;73.29;98194.48;1715091;82;20998;-64
2021/12/02 02:26:59;;;;;;;15.70;8.08;;;;;;;-1.24;73.49;98202.06;1712572;82;21119;-63
2021/12/02 02:29:25;;;;;;;14.10;8.18;;;;;;;-1.19;73.54;98205.83;1706289;82;21178;-64
2021/12/02 02:31:52;;;;;;;14.40;7.90;;;;;;;-1.20;73.56;98199.63;1719587;81;21102;-62
2021/12/02 02:34:23;;;;;;;14.43;8.68;;;;;;;-1.19;73.68;98210.70;1693049;82;21155;-63
2021/12/02 02:36:54;;;;;;;20.30;9.28;;;;;;;-1.16;73.74;98202.59;1714298;82;21495;-63
2021/12/02 02:39:21;;;;;;;16.42;9.28;;;;;;;-1.15;73.83;98193.39;1718051;82;21037;-65
2021/12/02 02:41:54;;;;;;;21.90;10.05;;;;;;;-1.10;73.97;98198.78;1706294;82;21000;-64
2021/12/02 02:44:15;;;;;;;20.45;9.68;;;;;;;-1.05;73.99;98187.95;1712173;82;21470;-63
2021/12/02 02:46:42;;;;;;;16.85;9.83;;;;;;;-1.02;74.01;98183.34;1722264;82;21127;-64
2021/12/02 02:49:13;;;;;;;19.55;10.40;;;;;;;-1.01;73.99;98187.66;1705327;82;21640;-64
2021/12/02 02:51:40;;;;;;;17.73;10.08;;;;;;;-0.99;74.12;98182.00;1716313;82;21670;-64
2021/12/02 02:54:09;;;;;;;17.20;10.23;;;;;;;-0.96;74.17;98183.33;1712583;82;21084;-63
2021/12/02 02:56:44;;;;;;;18.80;11.33;;;;;;;-0.93;74.25;98186.83;1711208;82;21082;-63
2021/12/02 02:59:33;;;;;;;20.02;11.03;;;;;;;-0.92;74.24;98193.30;1698758;82;21822;-64
2021/12/02 03:04:25;;;;;;;16.42;11.00;;;;;;;-0.90;74.37;98171.39;1704324;82;21050;-65
2021/12/02 03:11:59;;;;;;;17.80;10.45;;;;;;;-0.92;74.60;98162.77;1704188;82;21162;-64
2021/12/02 03:14:29;;;;;;;19.62;10.75;;;;;;;-0.89;74.75;98170.32;1711556;82;21016;-63
2021/12/02 03:16:55;;;;;;;18.40;10.25;;;;;;;-0.87;74.79;98169.51;1674154;83;21522;-63
2021/12/02 03:19:25;;;;;;;19.62;11.70;;;;;;;-0.85;74.88;98179.48;1715996;82;21069;-63
2021/12/02 03:21:53;;;;;;;19.02;11.68;;;;;;;-0.84;74.83;98170.30;1685254;82;21183;-64
2021/12/02 03:24:21;;;;;;;16.82;10.45;;;;;;;-0.83;74.94;98162.44;1717567;82;21752;-64
2021/12/02 03:26:48;;;;;;;20.60;12.18;;;;;;;-0.81;74.92;98155.40;1706076;82;21139;-63
2021/12/02 03:29:16;;;;;;;17.48;10.75;;;;;;;-0.77;74.99;98153.20;1706066;82;21054;-64
2021/12/02 03:31:44;;;;;;;18.37;9.93;;;;;;;-0.76;75.01;98146.72;1697043;82;21305;-63
2021/12/02 03:34:11;;;;;;;18.30;11.33;;;;;;;-0.74;74.99;98133.73;1716296;81;21830;-64
2021/12/02 03:36:38;;;;;;;16.37;10.35;;;;;;;-0.74;75.07;98141.84;1711457;82;21149;-64
2021/12/02 03:39:07;;;;;;;16.37;10.80;;;;;;;-0.72;75.08;98136.69;1707195;82;21007;-64
2021/12/02 03:41:35;;;;;;;18.60;10.30;;;;;;;-0.74;75.04;98133.73;1720173;81;21096;-66
2021/12/02 03:44:01;;;;;;;20.32;11.22;;;;;;;-0.70;75.11;98125.05;1712427;82;21048;-64
2021/12/02 03:46:28;;;;;;;16.97;11.38;;;;;;;-0.68;75.17;98116.12;1698743;82;21580;-65
2021/12/02 03:48:55;;;;;;;15.30;9.80;;;;;;;-0.69;75.23;98117.19;1720337;82;21108;-63
2021/12/02 03:51:22;;;;;;;17.75;10.58;;;;;;;-0.68;75.24;98103.37;1708246;82;21107;-64
2021/12/02 03:53:50;;;;;;;20.52;10.75;;;;;;;-0.68;75.33;98101.23;1707112;82;21013;-64
2021/12/02 03:56:17;;;;;;;19.00;10.38;;;;;;;-0.68;75.30;98103.37;1716134;82;21011;-64
2021/12/02 03:58:45;;;;;;;16.07;11.20;;;;;;;-0.64;75.30;98096.86;1708526;82;21606;-63
2021/12/02 04:01:13;;;;;;;19.45;10.93;;;;;;;-0.65;75.24;98091.20;1707280;82;21580;-63
2021/12/02 04:03:39;;;;;;;18.17;11.43;;;;;;;-0.66;75.35;98093.09;1713336;81;21016;-63
2021/12/02 04:06:07;;;;;;;19.80;11.25;;;;;;;-0.63;75.33;98095.77;1707088;82;21161;-63
2021/12/02 04:08:54;;;;;;;15.23;10.50;;;;;;;-0.64;75.37;98092.27;1726904;82;21041;-63
2021/12/02 04:14:05;;;;;;;16.48;10.03;;;;;;;-0.58;75.42;98086.83;1707778;81;21587;-63
2021/12/02 04:16:27;;;;;;;16.62;10.90;;;;;;;-0.57;75.41;98085.19;1705221;82;20999;-63
2021/12/02 04:18:53;;;;;;;16.30;10.60;;;;;;;-0.57;75.42;98081.13;1685854;82;21013;-64
2021/12/02 04:21:20;;;;;;;18.75;11.95;;;;;;;-0.53;75.47;98075.97;1713042;82;21066;-64
2021/12/02 04:23:47;;;;;;;19.27;11.68;;;;;;;-0.50;75.45;98077.56;1707913;82;21480;-64
2021/12/02 04:26:14;;;;;;;18.35;11.57;;;;;;;-0.48;75.33;98072.41;1718026;82;21137;-65
2021/12/02 04:28:44;;;;;;;15.83;11.10;;;;;;;-0.47;75.34;98072.66;1716396;81;20987;-63
2021/12/02 04:31:10;;;;;;;18.12;10.75;;;;;;;-0.44;75.37;98066.67;1713764;82;21021;-65
2021/12/02 04:33:38;;;;;;;18.15;10.93;;;;;;;-0.40;75.31;98056.91;1692388;83;21067;-63
2021/12/02 04:36:06;;;;;;;18.48;11.73;;;;;;;-0.41;75.25;98060.72;1724114;82;21091;-63
2021/12/02 04:38:33;;;;;;;19.35;11.33;;;;;;;-0.43;75.21;98052.07;1709561;82;21162;-63
2021/12/02 04:40:59;;;;;;;16.90;11.28;;;;;;;-0.43;75.32;98061.55;1706008;82;21036;-63
2021/12/02 04:43:26;;;;;;;18.98;11.40;;;;;;;-0.37;75.36;98063.92;1669948;82;21473;-63
2021/12/02 04:45:53;;;;;;;18.42;11.48;;;;;;;-0.33;75.27;98052.52;1707040;82;21070;-64
2021/12/02 04:48:20;;;;;;;17.45;10.60;;;;;;;-0.30;75.24;98057.37;1707540;82;21062;-63
2021/12/02 04:50:47;;;;;;;16.27;9.83;;;;;;;-0.28;75.12;98059.25;1708198;82;21917;-64
2021/12/02 04:53:13;;;;;;;17.00;10.72;;;;;;;-0.25;75.10;98064.91;1712318;82;21054;-63
2021/12/02 04:55:40;;;;;;;17.62;11.85;;;;;;;-0.24;75.05;98067.08;1708534;82;21108;-64
2021/12/02 04:58:07;;;;;;;16.48;10.00;;;;;;;-0.22;75.02;98070.86;1699359;82;21064;-64
2021/12/02 05:00:33;;;;;;;15.45;10.40;;;;;;;-0.18;74.98;98056.99;1722203;82;21490;-63
2021/12/02 05:02:59;;;;;;;17.73;10.90;;;;;;;-0.15;74.90;98049.66;1718091;81;21149;-63
2021/12/02 05:05:25;;;;;;;18.85;12.18;;;;;;;-0.12;74.83;98053.17;1725637;82;21091;-63
2021/12/02 05:07:54;;;;;;;16.90;10.25;;;;;;;-0.09;74.67;98045.82;1701013;82;21024;-64
2021/12/02 05:10:21;;;;;;;20.48;11.22;;;;;;;-0.05;74.52;98027.11;1720280;82;21005;-64
2021/12/02 05:12:48;;;;;;;16.30;10.68;;;;;;;-0.04;74.51;98033.59;1690130;83;21015;-65
2021/12/02 05:15:14;;;;;;;18.92;11.12;;;;;;;-0.01;74.50;98031.66;1708187;82;21115;-63
2021/12/02 05:17:42;;;;;;;17.25;10.58;;;;;;;0.02;74.41;98032.19;1719475;81;21039;-62
2021/12/02 05:20:10;;;;;;;18.48;11.15;;;;;;;0.05;74.38;98027.55;1702067;82;21106;-64
2021/12/02 05:22:38;;;;;;;16.90;11.48;;;;;;;0.06;74.40;98025.08;1728806;82;21554;-64
2021/12/02 05:25:06;;;;;;;15.08;10.45;;;;;;;0.07;74.40;98043.75;1708669;82;21066;-64
2021/12/02 05:27:34;;;;;;;15.15;10.50;;;;;;;0.08;74.37;98041.86;1699428;82;21547;-64
2021/12/02 05:30:01;;;;;;;20.08;11.05;;;;;;;0.08;74.33;98033.20;1701748;82;21029;-64
2021/12/02 05:32:31;;;;;;;18.27;11.03;;;;;;;0.11;74.33;98029.91;1710700;82;21460;-63
2021/12/02 05:34:58;;;;;;;17.20;11.03;;;;;;;0.17;74.22;98037.98;1706700;81;20995;-64
2021/12/02 05:37:27;;;;;;;17.23;10.50;;;;;;;0.19;74.13;98042.01;1687130;83;21087;-64
2021/12/02 05:39:53;;;;;;;16.67;10.55;;;;;;;0.20;74.13;98039.58;1717689;82;21864;-64
2021/12/02 05:42:19;;;;;;;20.52;10.78;;;;;;;0.24;74.13;98038.43;1717658;82;21056;-64
2021/12/02 05:44:46;;;;;;;18.95;11.28;;;;;;;0.26;74.10;98039.52;1702760;82;21210;-64
2021/12/02 05:47:12;;;;;;;18.10;11.63;;;;;;;0.28;74.07;98050.32;1721170;82;21076;-64
2021/12/02 05:49:39;;;;;;;17.17;9.95;;;;;;;0.32;74.08;98057.33;1704257;82;21095;-64
2021/12/02 05:52:07;;;;;;;17.55;11.33;;;;;;;0.33;74.04;98053.52;1705603;82;21820;-64
2021/12/02 05:54:34;;;;;;;14.93;10.75;;;;;;;0.35;74.06;98054.04;1716091;82;21075;-63
2021/12/02 05:57:00;;;;;;;14.98;10.50;;;;;;;0.35;74.01;98054.04;1703786;82;21089;-64
2021/12/02 05:59:28;;;;;;;17.15;11.12;;;;;;;0.36;74.02;98059.70;1681988;83;21061;-64
2021/12/02 06:01:54;;;;;;;17.65;10.58;;;;;;;0.38;74.00;98050.75;1713773;82;20985;-64
2021/12/02 06:04:20;;;;;;;19.62;11.18;;;;;;;0.40;73.96;98052.63;1712242;82;21033;-64
2021/12/02 06:06:49;;;;;;;18.80;10.80;;;;;;;0.44;73.91;98059.10;1710630;82;21031;-63
2021/12/02 06:09:18;;;;;;;17.50;11.15;;;;;;;0.48;73.86;98057.95;1689127;82;21556;-64
2021/12/02 06:11:46;;;;;;;21.87;12.28;;;;;;;0.51;73.79;98052.52;1714934;82;21154;-65
2021/12/02 06:14:14;;;;;;;15.00;9.33;;;;;;;0.51;73.81;98053.33;1698518;82;21172;-64
2021/12/02 06:16:42;;;;;;;17.85;10.30;;;;;;;0.51;73.85;98047.09;1690902;82;21155;-65
2021/12/02 06:19:08;;;;;;;14.65;10.93;;;;;;;0.50;73.91;98044.11;1689414;82;21537;-65
2021/12/02 06:21:35;;;;;;;17.92;10.82;;;;;;;0.52;73.91;98055.47;1693220;82;21018;-65
2021/12/02 06:24:04;;;;;;;14.03;9.13;;;;;;;0.52;73.91;98046.80;1713228;82;21055;-65
2021/12/02 06:26:29;;;;;;;16.60;11.10;;;;;;;0.54;73.96;98055.45;1716104;82;21036;-64
2021/12/02 06:28:56;;;;;;;19.27;11.70;;;;;;;0.53;73.95;98045.69;1726289;82;21130;-64
2021/12/02 06:31:24;;;;;;;17.12;10.60;;;;;;;0.57;74.00;98052.70;1706933;82;21042;-64
2021/12/02 06:33:51;;;;;;;17.65;10.65;;;;;;;0.60;74.03;98052.12;1710795;82;21009;-65
2021/12/02 06:36:18;;;;;;;14.65;9.65;;;;;;;0.62;74.01;98053.19;1708688;82;21170;-64
2021/12/02 06:38:44;;;;;;;15.98;9.83;;;;;;;0.63;74.00;98052.92;1711966;82;21082;-64
2021/12/02 06:41:12;;;;;;;16.15;9.88;;;;;;;0.65;74.00;98056.13;1721386;81;21166;-62
2021/12/02 06:43:38;;;;;;;14.83;9.33;;;;;;;0.68;73.94;98052.83;1722774;82;21042;-64
2021/12/02 06:46:04;;;;;;;13.75;8.80;;;;;;;0.72;73.93;98048.99;1685285;83;21064;-63
2021/12/02 06:48:32;;;;;;;16.55;9.98;;;;;;;0.73;73.95;98050.05;1720903;82;21070;-63
2021/12/02 06:50:58;;;;;;;16.45;10.08;;;;;;;0.76;73.94;98047.87;1718703;82;21034;-64
2021/12/02 06:53:24;;;;;;;20.10;11.60;;;;;;;0.78;73.93;98057.87;1701375;82;21214;-64
2021/12/02 06:55:51;;;;;;;14.73;9.73;;;;;;;0.80;73.89;98052.98;1685474;82;21495;-64
2021/12/02 06:58:17;;;;;;;16.97;10.38;;;;;;;0.81;73.94;98047.80;1727728;82;21042;-63
2021/12/02 07:00:44;;;;;;;15.05;9.40;;;;;;;0.83;73.95;98049.14;1682153;83;21064;-65
2021/12/02 07:03:12;;;;;;;16.25;10.05;;;;;;;0.84;73.95;98048.03;1703824;82;21055;-64
2021/12/02 07:05:39;;;;;;;15.93;10.35;;;;;;;0.86;73.97;98054.52;1711936;82;21146;-64
2021/12/02 07:08:06;;;;;;;17.37;9.63;;;;;;;0.88;74.00;98050.16;1707191;82;20993;-63
2021/12/02 07:10:33;;;;;;;19.62;10.32;;;;;;;0.91;74.09;98047.67;1711372;82;21079;-64
2021/12/02 07:13:00;;;;;;;15.35;9.13;;;;;;;0.94;74.08;98041.66;1686173;83;21067;-64
2021/12/02 07:15:30;;;;;;;14.53;8.93;;;;;;;0.96;74.02;98032.69;1696771;82;21919;-64
2021/12/02 07:17:57;;;;;;;12.93;8.80;;;;;;;1.00;74.03;98035.63;1717885;81;21133;-64
2021/12/02 07:20:26;;;;;;;15.80;9.98;;;;;;;1.02;74.02;98032.61;1704888;82;21071;-63
2021/12/02 07:22:52;;;;;;;14.00;9.18;;;;;;;1.03;74.11;98035.57;1709593;82;21088;-63
2021/12/02 07:25:19;;;;;;;14.90;9.63;;;;;;;1.03;74.17;98028.79;1703155;82;21045;-64
2021/12/02 07:27:47;;;;;;;18.30;9.98;;;;;;;1.08;74.21;98040.92;1709573;82;21538;-64
2021/12/02 07:30:14;;;;;;;16.70;8.58;;;;;;;1.12;74.23;98029.75;1727452;82;21141;-64
2021/12/02 07:32:41;;;;;;;14.30;8.88;;;;;;;1.17;74.17;98035.65;1724483;82;21257;-63
2021/12/02 07:35:14;;;;;;;13.88;9.18;;;;;;;1.22;74.18;98043.72;1689627;83;21058;-64
2021/12/02 07:37:44;;;;;;;13.40;8.17;;;;;;;1.27;74.13;98039.58;1725258;82;21047;-64
2021/12/02 07:40:12;;;;;;;16.90;9.08;;;;;;;1.32;74.04;98035.97;1719567;81;21505;-64
2021/12/02 07:42:38;;;;;;;16.42;9.88;;;;;;;1.33;73.95;98038.95;1726207;82;21147;-65
2021/12/02 07:45:06;;;;;;;16.20;10.00;;;;;;;1.36;73.88;98042.44;1705859;82;20993;-63
2021/12/02 07:47:34;;;;;;;17.12;10.28;;;;;;;1.38;73.90;98037.49;1719265;82;21044;-64
2021/12/02 07:50:00;;;;;;;16.02;9.98;;;;;;;1.40;73.89;98048.88;1714653;82;21737;-64
2021/12/02 07:52:27;;;;;;;15.60;9.93;;;;;;;1.43;73.84;98050.20;1727509;82;21107;-64
2021/12/02 07:54:55;;;;;;;24.37;10.90;;;;;;;1.45;73.82;98052.08;1710754;82;21146;-64
2021/12/02 07:57:22;;;;;;;15.90;10.45;;;;;;;1.47;73.83;98047.70;1709551;82;21186;-63
2021/12/02 07:59:50;;;;;;;19.65;11.22;;;;;;;1.47;73.90;98052.56;1716629;82;21083;-64
2021/12/02 08:02:17;;;;;;;17.10;10.03;;;;;;;1.51;73.95;98062.28;1674665;82;21019;-64
2021/12/02 08:04:46;;;;;;;17.82;10.68;;;;;;;1.53;73.91;98055.48;1687356;82;21002;-64
2021/12/02 08:07:12;;;;;;;17.82;10.23;;;;;;;1.55;73.91;98051.89;1702704;82;21144;-64
2021/12/02 08:09:41;;;;;;;14.35;9.33;;;;;;;1.58;73.83;98045.89;1723469;82;21072;-63
2021/12/02 08:12:08;;;;;;;24.27;10.95;;;;;;;1.60;73.87;98048.31;1722572;82;21046;-63
2021/12/02 08:14:35;;;;;;;15.50;9.68;;;;;;;1.62;73.87;98058.88;1729983;82;21168;-64
2021/12/02 08:17:03;;;;;;;19.62;10.45;;;;;;;1.63;73.96;98055.05;1706035;82;21024;-63
2021/12/02 08:19:29;;;;;;;17.00;10.68;;;;;;;1.64;74.04;98060.17;1719770;82;21160;-64
2021/12/02 08:21:56;;;;;;;17.55;10.55;;;;;;;1.66;74.12;98059.33;1692526;82;21651;-64
2021/12/02 08:24:24;;;;;;;17.70;10.90;;;;;;;1.70;74.09;98054.94;1713620;82;21091;-64
2021/12/02 08:26:50;;;;;;;16.07;10.23;;;;;;;1.74;74.02;98062.48;1721368;82;21094;-64
2021/12/02 08:29:17;;;;;;;17.07;10.70;;;;;;;1.76;74.08;98064.33;1706765;82;21545;-65
2021/12/02 08:31:43;;;;;;;16.05;10.05;;;;;;;1.77;74.13;98060.53;1692040;82;21036;-64
2021/12/02 08:34:10;;;;;;;17.07;10.28;;;;;;;1.80;74.15;98059.93;1707973;82;21087;-64
2021/12/02 08:36:50;;;;;;;20.15;9.28;;;;;;;1.85;74.17;98057.67;1712895;82;21012;-64
2021/12/02 08:39:16;;;;;;;15.65;9.98;;;;;;;1.86;74.39;98055.22;1717473;82;21084;-62
2021/12/02 08:41:43;;;;;;;20.17;10.95;;;;;;;1.87;74.41;98056.28;1711612;82;21050;-64
2021/12/02 08:44:07;;;;;;;14.78;10.05;;;;;;;1.90;74.42;98063.02;1716665;82;21136;-63
2021/12/02 08:46:33;;;;;;;18.85;10.68;;;;;;;1.93;74.45;98058.34;1722338;82;21099;-64
2021/12/02 08:49:04;;;;;;;19.17;10.32;;;;;;;1.96;74.47;98056.41;1721451;82;21512;-64
2021/12/02 08:51:37;;;;;;;17.57;10.82;;;;;;;1.99;74.47;98054.99;1629627;85;21016;-65
2021/12/02 08:54:04;;;;;;;14.90;8.55;;;;;;;1.99;74.61;98046.30;1627045;86;21077;-64
2021/12/02 08:56:31;;;;;;;16.97;10.80;;;;;;;2.00;74.82;98044.37;1658915;84;21070;-64
2021/12/02 08:58:59;;;;;;;13.78;9.80;;;;;;;1.99;74.88;98040.05;1675113;84;21068;-64
2021/12/02 09:01:28;;;;;;;19.32;10.65;;;;;;;2.02;75.01;98051.67;1694168;83;21021;-64
2021/12/02 09:03:57;;;;;;;16.73;10.18;;;;;;;2.03;75.04;98039.72;1660359;84;21589;-65
2021/12/02 09:06:23;;;;;;;17.90;10.58;;;;;;;2.04;75.11;98038.60;1669725;84;21163;-64
2021/12/02 09:08:53;;;;;;;15.70;9.68;;;;;;;2.07;75.26;98036.64;1662124;84;21146;-64
2021/12/02 09:11:19;;;;;;;21.52;10.93;;;;;;;2.08;75.51;98034.73;1660770;84;21493;-64
2021/12/02 09:13:48;;;;;;;17.57;10.20;;;;;;;2.12;75.66;98033.02;1671373;84;21056;-64
2021/12/02 09:16:16;;;;;;;24.45;10.93;;;;;;;2.18;75.66;98034.55;1650383;85;21008;-63
2021/12/02 09:18:42;;;;;;;15.23;10.05;;;;;;;2.23;75.59;98031.73;1704179;82;21011;-64
2021/12/02 09:21:09;;;;;;;19.52;10.38;;;;;;;2.28;75.58;98029.47;1729726;82;21774;-66
2021/12/02 09:23:35;;;;;;;29.25;11.40;;;;;;;2.31;75.62;98028.31;1717287;82;21147;-64
2021/12/02 09:26:02;;;;;;;19.00;10.85;;;;;;;2.35;75.52;98026.34;1710645;82;21067;-64
2021/12/02 09:28:30;;;;;;;21.20;9.38;;;;;;;2.36;75.53;98029.30;1704478;82;21552;-64
2021/12/02 09:30:57;;;;;;;21.93;10.95;;;;;;;2.37;75.53;98018.70;1714518;82;21048;-66
2021/12/02 09:33:26;;;;;;;18.17;10.58;;;;;;;2.37;75.55;98027.64;1709779;82;21828;-66
2021/12/02 09:35:52;;;;;;;18.07;11.22;;;;;;;2.37;75.69;98027.64;1710139;82;21104;-65
2021/12/02 09:38:19;;;;;;;17.07;10.20;;;;;;;2.37;75.83;98023.56;1681901;83;21033;-64
2021/12/02 09:40:49;;;;;;;21.40;11.60;;;;;;;2.40;75.85;98024.89;1699800;82;21071;-65
2021/12/02 09:43:17;;;;;;;15.72;9.85;;;;;;;2.43;75.82;98025.64;1722775;82;21018;-66
2021/12/02 09:45:44;;;;;;;18.82;10.08;;;;;;;2.45;75.79;98018.53;1724687;82;21138;-65
2021/12/02 09:48:10;;;;;;;17.17;9.88;;;;;;;2.47;75.88;98017.69;1695062;82;21088;-65
2021/12/02 09:50:49;;;;;;;14.68;9.33;;;;;;;2.50;75.97;98013.81;1693014;82;21154;-64
2021/12/02 09:53:09;;;;;;;17.62;10.68;;;;;;;2.53;76.01;98020.55;1704071;82;21644;-64
2021/12/02 09:55:46;;;;;;;15.85;9.95;;;;;;;2.55;75.96;98016.97;1708253;82;21487;-64
2021/12/02 09:58:11;;;;;;;16.23;9.65;;;;;;;2.56;76.06;98006.33;1709608;82;21068;-63
2021/12/02 10:00:43;;;;;;;18.42;9.33;;;;;;;2.57;76.06;98005.79;1711470;82;20990;-65
2021/12/02 10:06:19;;;;;;;20.32;11.00;;;;;;;2.61;76.22;97995.35;1711875;82;21012;-65
2021/12/02 10:09:36;;;;;;;19.77;11.30;;;;;;;2.63;76.19;98004.02;1715432;82;21018;-63
2021/12/02 10:11:47;;;;;;;14.40;9.48;;;;;;;2.65;76.21;98005.88;1687791;82;21782;-64
2021/12/02 10:14:22;;;;;;;24.00;12.40;;;;;;;2.64;76.20;97997.48;1711780;82;21068;-65
2021/12/02 10:16:53;;;;;;;;;;;;;;;2.65;76.21;98001.80;1720907;81;21085;-65
2021/12/02 10:19:27;;;;;;;19.87;11.93;;;;;;;2.64;76.25;98000.75;1711234;82;20163;-65
2021/12/02 10:21:53;;;;;;;27.22;11.63;;;;;;;2.64;76.34;97998.03;1715041;82;21054;-65
2021/12/02 10:24:26;;;;;;;21.25;12.00;;;;;;;2.63;76.35;97996.41;1710040;82;21160;-64
2021/12/02 10:27:00;;;;;;;28.80;16.37;;;;;;;2.65;76.42;97995.55;1710395;82;21010;-65
2021/12/02 10:29:33;;;;;;;25.97;16.85;;;;;;;2.68;76.51;97990.31;1715068;82;21021;-65
2021/12/02 10:32:20;;;;;;;22.50;13.70;;;;;;;2.71;76.49;97992.17;1710254;82;21021;-66
2021/12/02 10:35:06;;;;;;;21.97;12.30;;;;;;;2.73;76.50;97992.11;1703007;82;21037;-67
2021/12/02 10:37:34;;;;;;;21.50;11.65;;;;;;;2.78;76.49;97993.94;1709298;82;21485;-63
2021/12/02 10:40:16;;;;;;;22.55;11.90;;;;;;;2.82;76.54;97984.58;1683752;83;21094;-64
2021/12/02 10:42:45;;;;;;;28.27;13.08;;;;;;;2.84;76.52;97984.54;1703741;82;21072;-65
2021/12/02 10:45:27;;;;;;;23.38;11.95;;;;;;;2.88;76.48;97982.02;1716668;82;21083;-63
2021/12/02 10:47:54;;;;;;;20.62;11.38;;;;;;;2.94;76.51;97988.13;1723372;82;21194;-64
2021/12/02 10:50:23;;;;;;;23.02;12.68;;;;;;;2.99;76.46;97994.81;1680986;82;21229;-64
2021/12/02 10:52:51;;;;;;;24.27;13.15;;;;;;;3.01;76.33;97985.80;1693386;82;21006;-66
2021/12/02 10:55:22;;;;;;;20.95;11.38;;;;;;;3.05;76.25;97985.45;1703274;82;20984;-64
2021/12/02 10:57:54;;;;;;;20.62;9.93;;;;;;;3.07;76.28;97981.05;1716913;82;20993;-64
2021/12/02 11:00:23;;;;;;;22.43;12.13;;;;;;;3.10;76.13;97971.72;1706044;82;21595;-64
2021/12/02 11:02:53;;;;;;;22.25;12.25;;;;;;;3.11;76.06;97965.15;1696358;82;21162;-64
2021/12/02 11:05:26;;;;;;;22.25;11.90;;;;;;;3.15;76.03;97957.98;1690619;81;21033;-65
2021/12/02 11:07:59;;;;;;;19.85;10.18;;;;;;;3.19;76.02;97961.45;1705319;82;21052;-64
2021/12/02 11:10:26;;;;;;;20.48;11.65;;;;;;;3.23;75.91;97959.16;1704297;82;21084;-64
2021/12/02 11:12:54;;;;;;;17.40;10.70;;;;;;;3.27;75.69;97955.26;1706939;82;20993;-64
2021/12/02 11:15:26;;;;;;;19.37;11.73;;;;;;;3.27;75.68;97956.08;1704574;82;21171;-65
2021/12/02 11:18:04;;;;;;;25.23;11.55;;;;;;;3.30;75.63;97954.63;1719617;82;20998;-64
2021/12/02 11:20:40;;;;;;;18.42;10.25;;;;;;;3.33;75.72;97948.56;1716134;82;21068;-63
2021/12/02 11:23:10;;;;;;;19.67;11.80;;;;;;;3.37;75.67;97952.29;1730420;81;21057;-64
2021/12/02 11:25:56;;;;;;;20.07;11.93;;;;;;;3.40;75.58;97950.84;1676226;82;21053;-64
2021/12/02 11:28:26;;;;;;;21.60;11.70;;;;;;;3.44;75.50;97945.59;1709183;82;21160;-64
2021/12/02 11:30:53;;;;;;;22.40;11.43;;;;;;;3.48;75.40;97947.38;1716722;82;21514;-62
2021/12/02 11:33:21;;;;;;;23.67;12.45;;;;;;;3.50;75.34;97942.98;1705129;82;20991;-64
2021/12/02 11:35:48;;;;;;;20.25;11.55;;;;;;;3.51;75.26;97938.58;1710081;82;21088;-64
2021/12/02 11:38:23;;;;;;;21.00;10.80;;;;;;;3.53;75.19;97943.16;1713769;82;21101;-65
2021/12/02 11:40:59;;;;;;;25.45;11.55;;;;;;;3.55;75.19;97942.06;1704343;82;21814;-63
2021/12/02 11:43:32;;;;;;;22.10;10.50;;;;;;;3.57;75.00;97941.98;1704080;82;21173;-65
2021/12/02 11:45:59;;;;;;;18.73;11.63;;;;;;;3.57;74.95;97940.63;1696107;81;21491;-64
2021/12/02 11:48:30;;;;;;;20.72;11.15;;;;;;;3.59;74.98;97950.66;1711473;82;20993;-64